ZGOW

Shantou Waisha Airport

Shantou, China
TAF ZGOW 190301Z 1906/2006 10003MPS 6000 FEW020 BKN050 TX27/1907Z TN20/1922Z
Issued Valid From Valid To
Oct-19 @ 03:01 UTC
(6 hours ago)
Oct-19 @ 06:00 UTC
(3 hours ago)
Oct-20 @ 06:00 UTC
(in 21 hours)
Oct-19 @ 06:00 to Oct-20 @ 06:00
TAF ZGOW 190301Z 1906/2006 10003MPS 6000 FEW020 BKN050 TX27/1907Z TN20/1922Z
Wind Visibility Clouds
100° at 6 knots 6,003 meters
  • Few at 2,000' AGL
  • Broken at 5,000' AGL
TAF ZGOW 190301Z 1906/2006 10003MPS 6000 FEW020 BKN050 TX27/1907Z TN20/1922Z
Issued Oct-19 @ 03:01 UTC
(6 hours ago)
Valid From Oct-19 @ 06:00 UTC
(3 hours ago)
Valid To Oct-20 @ 06:00 UTC
(in 21 hours)
Oct-19 @ 06:00 - Oct-20 @ 06:00
Wind Visibility
100° at 6 knots 6,003 meters
Clouds
  • Few at 2,000' AGL
  • Broken at 5,000' AGL